SBOSBO SEN / EGMC
Speedbird OnlineSpeedbird Online SEN / EGMC

Southend Airport
23:02 13.2°C

Location Southend, United Kingdom
Latitude: 51.5713996887207
Longitude: 0.6955559849739075
Local Time 23:02 on 20 May 2024
UTC +1 hours (Europe/London)
METAR EGMC 202120Z 08004KT 9999 FEW010 SCT026 14/12 Q1012
TAF
Weather As Of 20 May 2024 23:02
Description Scattered clouds
Wind 9 km/h from North-East (30°)
Cloud Cover 40%
Precipitation Rain: none, Snow: none
Sunrise 04:57
Sunset 20:50
Web Airport Website | Wikipedia
Codes IATA: SEN
ICAO: EGMC
Altitude 15 Meter / 49 Feet
Distance 40 KM / 25 Miles
from London.
Runways
RunwayLength (m)Surface
051856Asphalt
231856Asphalt
Radio
TypeDescriptionFrequency
APPAPP130.775
ATISATIS121.8
RDRRDR130.775
TWRTWR127.725
Live ATC



Support Speedbird Online

© 2017-2024 Speedbird Online